Flight Track Log - Related Links

Times and Time Zones

All times are in EDT time to prevent confusion due to time zone crossing. See the JLG821 flight status page for this flight to view local times or setup timezone preferences in your user account.

Time Position Orientation Groundspeed Altitude Reporting Facility
EDT Latitude Longitude Course Direction KTS MPH feet Rate Location/Type
Wed 02:34:10 PM 38.9167 -77.5333 235° Southwest 166 191 2,300  Level Potomac TRACON
Wed 02:35:04 PM 38.9000 -77.5833 247° West 176 203 3,900 1,774 Climbing Potomac TRACON
Wed 02:36:05 PM 38.8894 -77.6478 258° West 172 198 5,700 1,770 Climbing Washington Center
Wed 02:37:06 PM 38.8742 -77.6981 249° West 172 198 7,500 1,636 Climbing Washington Center
Wed 02:38:06 PM 38.8444 -77.7211 211° Southwest 156 180 9,000 1,574 Climbing Washington Center
Wed 02:39:00 PM 38.6305 -77.8551 235° Southwest  Level FlightAware Approximate
Wed 02:39:08 PM 38.7958 -77.7597 212° Southwest 164 189 10,700  Level Washington Center
Wed 02:40:05 PM 38.7517 -77.7825 202° Southwest 175 201 12,400 1,576 Climbing Washington Center
Wed 02:41:06 PM 38.7136 -77.8081 208° Southwest 175 201 13,800 1,180 Climbing Washington Center
Wed 02:42:07 PM 38.6694 -77.8411 210° Southwest 180 207 14,800 1,008 Climbing Washington Center
Wed 02:43:05 PM 38.6247 -77.8822 216° Southwest 185 213 15,800 605 Climbing Washington Center
Wed 02:44:06 PM 38.5881 -77.9397 231° Southwest 197 227 16,000 99 Climbing Washington Center
Wed 02:45:06 PM 38.5472 -78.0100 233° Southwest 227 261 16,000  Level Washington Center
Wed 02:46:08 PM 38.5183 -78.0914 246° West 245 282 16,000  Level Washington Center
Wed 02:47:05 PM 38.4958 -78.1781 252° West 252 290 16,000 154 Level Washington Center
Wed 02:48:05 PM 38.4647 -78.2592 244° Southwest 258 297 16,300 496 Climbing Washington Center
Wed 02:49:06 PM 38.4217 -78.3239 230° Southwest 253 291 17,000 645 Climbing Washington Center
Wed 02:50:06 PM 38.3575 -78.3058 168° South 207 238 17,600 496 Climbing Washington Center
Wed 02:51:07 PM 38.2931 -78.2847 166° South 212 244 18,000 202 Climbing Washington Center
Wed 02:52:05 PM 38.2269 -78.2586 163° South 233 268 18,000  Level Washington Center
Wed 02:53:06 PM 38.1567 -78.2325 164° South 245 282 18,000  Level Washington Center
Wed 02:54:07 PM 38.0906 -78.2064 163° South 251 289 18,000  Level Washington Center
Wed 02:55:05 PM 38.0203 -78.1775 162° South 261 300 18,000  Level Washington Center
Wed 02:56:05 PM 37.9458 -78.1433 160° South 272 313 18,000  Level Washington Center
Wed 02:57:05 PM 37.8756 -78.1119 161° South 272 313 18,000  Level Washington Center
Wed 02:58:06 PM 37.8011 -78.0886 166° South 272 313 18,000  Level Washington Center
Wed 02:59:06 PM 37.7286 -78.0678 167° South 272 313 18,000  Level Washington Center
Wed 03:00:07 PM 37.6558 -78.0469 167° South 272 313 18,000  Level Washington Center
Wed 03:01:05 PM 37.5833 -78.0317 171° South 277 319 18,000  Level Washington Center
Wed 03:02:05 PM 37.5086 -78.0083 166° South 277 319 18,000  Level Washington Center
Wed 03:03:07 PM 37.4361 -77.9903 169° South 277 319 18,000  Level Washington Center
Wed 03:04:05 PM 37.3636 -77.9619 163° South 277 319 18,000  Level Washington Center
Wed 03:05:06 PM 37.2911 -77.9336 163° South 277 319 18,000  Level Washington Center
Wed 03:06:06 PM 37.2208 -77.8975 158° South 277 319 18,000  Level Washington Center
Wed 03:07:07 PM 37.1567 -77.8719 162° South 282 325 18,000  Level Washington Center
Wed 03:08:05 PM 37.0842 -77.8386 160° South 282 325 18,000  Level Washington Center
Wed 03:09:06 PM 37.0097 -77.8156 166° South 282 325 18,000  Level Washington Center
Wed 03:10:07 PM 36.9411 -77.7931 165° South 277 319 18,000  Level Washington Center
Wed 03:11:07 PM 36.8664 -77.7725 168° South 277 319 18,000 -203 Level Washington Center
Wed 03:12:05 PM 36.7958 -77.7525 167° South 277 319 17,600 -508 Descending Washington Center
Wed 03:13:05 PM 36.7211 -77.7322 168° South 272 313 17,000 -595 Descending Washington Center
Wed 03:14:06 PM 36.6506 -77.7122 167° South 272 313 16,400 -496 Descending Washington Center
Wed 03:15:06 PM 36.5800 -77.6947 169° South 272 313 16,000 -353 Descending Washington Center
Wed 03:16:05 PM 36.5072 -77.6772 169° South 272 313 15,700 -550 Descending Washington Center
Wed 03:17:06 PM 36.4347 -77.6547 166° South 272 313 14,900 -738 Descending Washington Center
Wed 03:18:07 PM 36.3619 -77.6400 171° South 272 313 14,200 -843 Descending Washington Center
Wed 03:19:07 PM 36.2911 -77.6200 167° South 272 313 13,200 -1,068 Descending Washington Center
Wed 03:20:05 PM 36.2206 -77.5975 166° South 272 313 12,100 -1,109 Descending Washington Center
Wed 03:21:06 PM 36.1503 -77.5625 158° South 272 313 11,000 -590 Descending Washington Center
Wed 03:22:07 PM 36.0819 -77.5300 159° South 267 307 10,900  Descending Washington Center
Wed 03:23:05 PM 36.0156 -77.5000 160° South 261 300 11,000 -252 Climbing Washington Center
Wed 03:24:06 PM 35.9556 -77.4831 167° South 251 289 10,400 -1,041 Descending Washington Center
Wed 03:25:06 PM 35.8908 -77.4714 172° South 240 276 8,900 -1,785 Descending Washington Center
Wed 03:26:07 PM 35.8267 -77.4544 168° South 235 270 6,800 -2,066 Descending Washington Center

Login

Don't have an account? Register now (free) for customized features, flight alerts, and more!